Time;durP1;ratioP1;P1;durP2;ratioP2;P2;SDS_P1;SDS_P2;PMS_P1;PMS_P2;Temp;Humidity;BMP_temperature;BMP_pressure;BME280_temperature;BME280_humidity;BME280_pressure;Samples;Min_cycle;Max_cycle;Signal;HPM_P1;HPM_P2
2022/03/24 00:00:55;;;;;;;;;;;3.40;74.20;;;2.18;69.99;97058.38;4035056;34;20210;-84
2022/03/24 00:03:25;;;;;;;;;;;3.50;74.10;;;2.17;69.97;97051.31;4036466;34;19911;-84
2022/03/24 00:05:54;;;;;;;;;;;3.40;73.90;;;2.18;70.31;97058.38;4017110;34;19905;-84
2022/03/24 00:08:22;;;;;;;;;;;3.40;74.20;;;2.15;70.16;97048.81;4062065;34;20508;-84
2022/03/24 00:10:51;;;;;;;;;;;3.50;74.00;;;2.15;70.01;97049.63;4037876;34;19904;-84
2022/03/24 00:13:19;;;;;;;;;;;3.40;73.90;;;2.15;70.12;97055.03;4007405;34;20213;-84
2022/03/24 00:15:48;;;;;;;;;;;3.40;74.00;;;2.15;70.31;97051.50;4029534;34;20104;-84
2022/03/24 00:18:17;;;;;;;;;;;3.40;74.00;;;2.15;69.79;97055.03;4005288;34;20231;-84
2022/03/24 00:20:47;;;;;;;;;;;3.40;73.80;;;2.15;69.75;97043.41;4006770;34;20219;-84
2022/03/24 00:23:15;;;;;;;;;;;3.40;73.80;;;2.14;69.72;97042.56;4035896;34;19911;-84
2022/03/24 00:25:44;;;;;;;;;;;3.40;73.70;;;2.14;70.09;97047.97;4054633;34;20210;-84
2022/03/24 00:28:12;;;;;;;;;;;3.40;73.70;;;2.14;69.33;97042.56;4052230;34;19916;-84
2022/03/24 00:30:41;;;;;;;;;;;3.40;73.60;;;2.12;69.83;97039.25;4030956;34;20105;-84
2022/03/24 00:33:10;;;;;;;;;;;3.40;73.50;;;2.15;69.44;97041.53;4051845;34;20197;-84
2022/03/24 00:35:38;;;;;;;;;;;3.40;73.40;;;2.12;69.65;97036.53;4050216;34;20207;-84
2022/03/24 00:38:10;;;;;;;;;;;3.40;73.40;;;2.12;69.98;97039.25;4007908;34;19911;-83
2022/03/24 00:40:40;;;;;;;;;;;3.40;74.20;;;2.13;69.53;97035.47;4003806;34;20587;-84
2022/03/24 00:43:08;;;;;;;;;;;3.40;73.30;;;2.14;69.71;97031.75;4003853;34;19912;-84
2022/03/24 00:45:40;;;;;;;;;;;3.40;73.40;;;2.12;70.07;97028.44;4025737;34;20225;-84
2022/03/24 00:48:09;;;;;;;;;;;3.40;73.70;;;2.12;69.44;97027.59;4025320;34;19905;-84
2022/03/24 00:50:38;;;;;;;;;;;3.40;73.50;;;2.11;68.95;97026.75;4027007;34;20066;-83
2022/03/24 00:53:06;;;;;;;;;;;3.40;73.10;;;2.10;69.41;97025.09;4003867;34;19912;-83
2022/03/24 00:55:36;;;;;;;;;;;3.40;73.10;;;2.10;69.35;97024.25;4026287;34;20342;-84
2022/03/24 00:58:05;;;;;;;;;;;3.40;73.00;;;2.11;69.17;97015.97;4030476;34;20220;-84
2022/03/24 01:00:36;;;;;;;;;;;3.40;73.00;;;2.12;69.08;97014.06;4010591;34;20217;-84
2022/03/24 01:03:06;;;;;;;;;;;3.40;72.90;;;2.11;69.15;97015.97;4011818;34;20229;-83
2022/03/24 01:05:37;;;;;;;;;;;3.40;73.10;;;2.11;68.97;97020.50;4011694;34;19904;-84
2022/03/24 01:08:08;;;;;;;;;;;3.40;73.10;;;2.12;69.26;97012.22;4033729;34;20237;-84
2022/03/24 01:10:38;;;;;;;;;;;3.40;73.20;;;2.09;69.00;97007.22;4013792;34;20200;-84
2022/03/24 01:13:06;;;;;;;;;;;3.40;73.00;;;2.09;69.11;97018.03;4050153;34;20210;-83
2022/03/24 01:15:35;;;;;;;;;;;3.40;72.90;;;2.10;69.02;97008.03;4063253;34;19911;-84
2022/03/24 01:18:07;;;;;;;;;;;3.40;73.10;;;2.09;69.47;97012.63;4038873;34;20589;-84
2022/03/24 01:20:37;;;;;;;;;;;3.40;73.20;;;2.08;69.22;97010.09;4061202;34;19915;-84
2022/03/24 01:23:06;;;;;;;;;;;3.40;73.00;;;2.08;68.96;97004.69;4038980;34;19904;-84
2022/03/24 01:25:34;;;;;;;;;;;3.40;72.90;;;2.08;68.58;97005.53;4039576;34;20226;-84
2022/03/24 01:28:05;;;;;;;;;;;3.40;72.70;;;2.08;68.58;96999.28;4038499;34;20239;-84
2022/03/24 01:30:34;;;;;;;;;;;3.40;72.60;;;2.08;69.08;96988.47;4039163;34;19926;-84
2022/03/24 01:33:02;;;;;;;;;;;3.40;72.60;;;2.06;68.82;96996.78;4038701;34;20220;-84
2022/03/24 01:35:31;;;;;;;;;;;3.40;72.70;;;2.07;68.30;96986.81;4039106;34;19911;-84
2022/03/24 01:38:00;;;;;;;;;;;3.40;72.60;;;2.07;68.85;96993.06;4060300;34;20200;-84
2022/03/24 01:40:29;;;;;;;;;;;3.30;72.70;;;2.07;69.11;96990.38;4039370;34;19904;-84
2022/03/24 01:42:57;;;;;;;;;;;3.40;72.80;;;2.06;68.99;96986.00;4039109;34;20210;-84
2022/03/24 01:45:27;;;;;;;;;;;3.30;72.70;;;2.06;68.60;96985.19;4038360;34;19904;-83
2022/03/24 01:47:55;;;;;;;;;;;3.40;72.60;;;2.06;69.01;96986.00;4037486;34;19911;-84
2022/03/24 01:50:24;;;;;;;;;;;3.30;72.50;;;2.06;69.08;96980.59;4038670;34;20225;-84
2022/03/24 01:52:53;;;;;;;;;;;3.30;72.80;;;2.05;68.98;96984.31;4037365;34;20235;-84
2022/03/24 01:55:21;;;;;;;;;;;3.30;72.70;;;2.04;68.74;96977.25;4038994;34;20213;-84
2022/03/24 01:57:50;;;;;;;;;;;3.30;72.70;;;2.05;68.76;96984.31;4019410;34;19907;-83
2022/03/24 02:00:19;;;;;;;;;;;3.30;72.70;;;2.05;68.88;96978.09;4047470;34;19904;-84
2022/03/24 02:02:49;;;;;;;;;;;3.30;72.60;;;2.04;68.46;96984.53;4052877;34;19905;-84
2022/03/24 02:05:18;;;;;;;;;;;3.30;72.50;;;2.03;68.85;96986.38;4038032;34;20211;-84
2022/03/24 02:07:47;;;;;;;;;;;3.30;72.40;;;2.03;69.21;96990.97;4060722;34;19915;-84
2022/03/24 02:10:18;;;;;;;;;;;3.30;72.70;;;2.03;68.84;96988.25;4045334;34;19911;-84
2022/03/24 02:12:46;;;;;;;;;;;3.30;72.60;;;2.03;68.25;96991.78;4038164;34;20208;-83
2022/03/24 02:15:15;;;;;;;;;;;3.30;72.50;;;2.02;68.68;96978.50;4056072;34;20196;-84
2022/03/24 02:17:43;;;;;;;;;;;3.30;72.60;;;2.03;68.45;96980.16;4033207;34;19908;-83
2022/03/24 02:20:13;;;;;;;;;;;3.30;72.60;;;2.02;68.71;96978.50;4034832;34;20228;-83
2022/03/24 02:22:44;;;;;;;;;;;3.30;72.40;;;2.02;68.37;96978.50;4035878;34;20254;-84
2022/03/24 02:25:13;;;;;;;;;;;3.30;72.60;;;2.02;69.18;96983.88;4036346;34;19927;-84
2022/03/24 02:27:41;;;;;;;;;;;3.30;72.60;;;2.01;68.29;96977.63;4035908;34;20209;-84
2022/03/24 02:30:11;;;;;;;;;;;3.30;72.40;;;2.01;68.87;96977.63;4012834;34;19957;-82
2022/03/24 02:32:39;;;;;;;;;;;3.30;72.40;;;1.99;68.74;96972.44;4009207;34;20273;-84
2022/03/24 02:35:09;;;;;;;;;;;3.30;72.70;;;2.01;68.85;96977.63;4009892;34;20240;-84
2022/03/24 02:37:37;;;;;;;;;;;3.30;72.80;;;1.98;68.66;96962.66;4030758;34;20538;-83
2022/03/24 02:40:09;;;;;;;;;;;3.30;72.60;;;2.00;68.44;96981.41;4006806;34;19927;-83
2022/03/24 02:42:39;;;;;;;;;;;3.30;72.40;;;1.99;68.72;96968.94;4032035;34;19905;-83
2022/03/24 02:45:10;;;;;;;;;;;3.30;72.40;;;1.99;68.42;96963.53;4012180;34;19973;-83
2022/03/24 02:47:38;;;;;;;;;;;3.30;72.30;;;1.98;68.93;96967.25;4034647;34;19904;-83
2022/03/24 02:50:09;;;;;;;;;;;3.30;72.50;;;1.97;68.39;96971.81;4035628;34;20248;-83
2022/03/24 02:52:37;;;;;;;;;;;3.30;72.50;;;1.97;68.29;96965.56;4013010;34;20105;-84
2022/03/24 02:55:09;;;;;;;;;;;3.20;72.30;;;1.97;68.20;96960.19;4014029;34;20249;-83
2022/03/24 02:57:37;;;;;;;;;;;3.30;72.40;;;1.97;68.08;96962.88;4002289;34;19905;-84
2022/03/24 03:00:08;;;;;;;;;;;3.30;72.40;;;1.96;68.67;96964.72;4008241;34;20246;-83
2022/03/24 03:02:37;;;;;;;;;;;3.30;72.40;;;1.96;68.68;96969.31;4007890;34;20148;-84
2022/03/24 03:05:07;;;;;;;;;;;3.30;72.50;;;1.95;68.65;96967.63;4027085;34;19912;-84
2022/03/24 03:07:35;;;;;;;;;;;3.20;72.50;;;1.95;69.10;96957.66;3982439;34;20342;-83
2022/03/24 03:10:05;;;;;;;;;;;3.20;72.70;;;1.94;68.74;96950.59;3989554;34;20159;-83
2022/03/24 03:12:36;;;;;;;;;;;3.20;72.70;;;1.95;68.86;96957.66;3971842;34;20122;-83
2022/03/24 03:15:06;;;;;;;;;;;3.20;72.80;;;1.93;68.57;96959.75;3963091;35;19905;-83
2022/03/24 03:17:36;;;;;;;;;;;3.20;72.80;;;1.93;69.04;96954.34;3944897;35;20158;-83
2022/03/24 03:20:05;;;;;;;;;;;3.20;72.70;;;1.93;68.70;96953.50;3970095;35;20108;-83
2022/03/24 03:22:34;;;;;;;;;;;3.20;72.90;;;1.93;68.50;96950.78;3948789;35;19912;-83
2022/03/24 03:25:02;;;;;;;;;;;3.20;72.80;;;1.93;69.03;96948.09;3951749;35;20205;-83
2022/03/24 03:27:32;;;;;;;;;;;3.20;72.80;;;1.93;68.90;96946.25;3973835;34;20174;-83
2022/03/24 03:30:02;;;;;;;;;;;3.20;72.70;;;1.94;69.00;96949.75;3964597;35;19941;-83
2022/03/24 03:32:31;;;;;;;;;;;3.20;72.90;;;1.92;68.72;96951.81;3971058;35;20218;-83
2022/03/24 03:35:01;;;;;;;;;;;3.20;72.80;;;1.92;69.64;96946.41;4007955;34;19904;-83
2022/03/24 03:37:30;;;;;;;;;;;3.20;72.90;;;1.91;68.85;96945.59;4022176;34;19904;-83
2022/03/24 03:39:59;;;;;;;;;;;3.20;73.10;;;1.91;69.07;96950.16;4000932;34;19905;-83
2022/03/24 03:42:27;;;;;;;;;;;3.20;72.90;;;1.92;68.93;96946.41;4001651;34;20200;-83
2022/03/24 03:44:56;;;;;;;;;;;3.20;72.80;;;1.92;68.96;96951.81;4009274;34;20243;-83
2022/03/24 03:47:27;;;;;;;;;;;3.20;72.60;;;1.91;69.05;96951.00;4049072;34;19908;-83
2022/03/24 03:49:57;;;;;;;;;;;3.20;72.70;;;1.89;69.16;96954.91;4029719;34;20249;-84
2022/03/24 03:52:25;;;;;;;;;;;3.20;72.90;;;1.90;69.73;96957.44;4029652;34;20188;-83
2022/03/24 03:54:54;;;;;;;;;;;3.20;73.40;;;1.89;69.58;96953.06;4030347;34;20217;-82
2022/03/24 03:57:22;;;;;;;;;;;3.20;73.40;;;1.89;69.50;96952.22;4055939;34;19911;-83
2022/03/24 03:59:51;;;;;;;;;;;3.20;73.30;;;1.87;68.96;96947.00;4027668;34;20253;-83
2022/03/24 04:02:19;;;;;;;;;;;3.20;73.40;;;1.89;69.64;96947.66;4026062;34;19905;-83
2022/03/24 04:04:50;;;;;;;;;;;3.20;73.40;;;1.88;69.60;96947.84;4005538;34;20197;-83
2022/03/24 04:07:19;;;;;;;;;;;3.20;73.30;;;1.88;69.84;96945.13;4025863;34;19904;-83
2022/03/24 04:09:48;;;;;;;;;;;3.20;73.40;;;1.87;69.37;96948.91;4029609;34;20251;-83
2022/03/24 04:12:16;;;;;;;;;;;3.20;73.30;;;1.86;69.38;96942.66;4032126;34;19904;-83
2022/03/24 04:14:45;;;;;;;;;;;3.10;73.40;;;1.88;69.47;96942.44;4010186;34;20595;-83
2022/03/24 04:17:14;;;;;;;;;;;3.10;73.50;;;1.86;69.76;96941.81;4033091;34;19911;-83
2022/03/24 04:19:42;;;;;;;;;;;3.20;73.60;;;1.87;69.46;96938.09;4013211;34;20223;-83
2022/03/24 04:22:13;;;;;;;;;;;3.10;73.40;;;1.84;69.51;96940.16;4061212;34;19912;-83
2022/03/24 04:24:41;;;;;;;;;;;3.10;73.50;;;1.86;69.45;96942.66;4041460;34;20087;-83
2022/03/24 04:27:12;;;;;;;;;;;3.20;73.40;;;1.86;69.25;96933.72;4041445;34;20213;-83
2022/03/24 04:29:40;;;;;;;;;;;3.10;73.30;;;1.83;69.70;96938.47;4064368;34;20207;-84
2022/03/24 04:32:10;;;;;;;;;;;3.10;73.40;;;1.86;69.33;96936.44;4065541;34;20111;-83
2022/03/24 04:34:38;;;;;;;;;;;3.10;73.40;;;1.86;69.22;96931.03;4065945;34;19912;-83
2022/03/24 04:37:07;;;;;;;;;;;3.10;73.20;;;1.88;69.51;96945.13;4067548;34;20208;-83
2022/03/24 04:39:37;;;;;;;;;;;3.20;73.50;;;1.93;69.31;96931.91;4047042;34;20198;-84
2022/03/24 04:42:08;;;;;;;;;;;3.20;73.40;;;2.01;69.35;96929.03;4049043;34;19908;-84
2022/03/24 04:44:37;;;;;;;;;;;3.30;73.10;;;2.18;68.67;96931.41;4017867;34;19913;-82
2022/03/24 04:47:06;;;;;;;;;;;3.50;72.70;;;2.38;68.05;96924.28;4031955;34;20198;-83
2022/03/24 04:49:34;;;;;;;;;;;3.80;71.90;;;2.64;66.73;96925.41;4038873;34;20209;-83
2022/03/24 04:52:03;;;;;;;;;;;4.00;70.40;;;2.87;65.46;96929.66;4061105;34;20135;-83
2022/03/24 04:54:32;;;;;;;;;;;4.20;69.80;;;3.04;64.26;96933.63;4038665;34;20418;-83
2022/03/24 04:57:02;;;;;;;;;;;4.40;67.80;;;3.19;64.06;96928.06;4059741;34;20212;-82
2022/03/24 04:59:31;;;;;;;;;;;4.50;67.20;;;3.31;63.36;96939.09;4060414;34;20211;-83
2022/03/24 05:02:00;;;;;;;;;;;4.50;66.80;;;3.35;63.54;96934.94;4060809;34;19905;-83
2022/03/24 05:04:28;;;;;;;;;;;4.50;66.70;;;3.40;63.18;96936.22;4029155;34;20212;-83
2022/03/24 05:06:58;;;;;;;;;;;4.60;66.70;;;3.40;63.88;96934.31;4038161;34;20111;-83
2022/03/24 05:09:27;;;;;;;;;;;4.60;67.00;;;3.45;64.49;96944.53;4038335;34;19911;-83
2022/03/24 05:11:55;;;;;;;;;;;4.70;68.20;;;3.54;65.82;96946.00;4038866;34;20248;-82
2022/03/24 05:14:25;;;;;;;;;;;4.70;69.00;;;3.56;65.80;96935.78;4038680;34;20096;-82
2022/03/24 05:16:54;;;;;;;;;;;4.80;69.50;;;3.60;65.85;96941.63;4037340;34;19904;-82
2022/03/24 05:19:22;;;;;;;;;;;4.80;69.80;;;3.63;66.00;96936.63;4058281;34;20212;-82
2022/03/24 05:21:51;;;;;;;;;;;4.90;69.90;;;3.66;66.25;96938.09;4058852;34;20196;-82
2022/03/24 05:24:19;;;;;;;;;;;4.90;69.70;;;3.69;66.61;96935.78;4062562;34;19911;-82
2022/03/24 05:26:48;;;;;;;;;;;5.00;69.60;;;3.75;66.03;96939.53;4060986;34;20497;-82
2022/03/24 05:29:17;;;;;;;;;;;5.10;69.60;;;3.82;66.16;96934.13;4054725;34;19911;-82
2022/03/24 05:31:47;;;;;;;;;;;5.20;69.10;;;3.93;65.79;96936.22;4038336;34;20242;-83
2022/03/24 05:34:16;;;;;;;;;;;5.50;68.70;;;4.12;65.87;96936.38;4037104;34;20216;-82
2022/03/24 05:36:45;;;;;;;;;;;5.80;68.00;;;4.36;65.03;96939.44;4059796;34;19904;-82
2022/03/24 05:39:13;;;;;;;;;;;6.10;66.90;;;4.64;64.43;96943.75;4060408;34;20199;-82
2022/03/24 05:41:42;;;;;;;;;;;6.50;65.60;;;4.94;63.01;96935.06;4054185;34;19911;-82
2022/03/24 05:44:10;;;;;;;;;;;6.90;63.90;;;5.26;62.13;96933.22;4011435;34;20199;-82
2022/03/24 05:46:44;;;;;;;;;;;7.40;62.10;;;5.61;60.91;96934.66;4015084;34;20225;-82
2022/03/24 05:49:16;;;;;;;;;;;7.90;60.40;;;5.96;60.13;96932.25;4058958;34;19904;-83
2022/03/24 05:52:20;;;;;;;;;;;8.30;59.00;;;6.30;58.92;96921.09;3982760;34;19986;-82
2022/03/24 05:54:49;;;;;;;;;;;8.80;57.30;;;6.52;58.02;96934.25;4024362;34;20225;-83
2022/03/24 05:57:17;;;;;;;;;;;9.00;56.30;;;6.68;57.15;96933.63;4051141;34;19911;-82
2022/03/24 05:59:46;;;;;;;;;;;9.20;55.50;;;6.75;56.93;96920.78;4028100;34;20204;-83
2022/03/24 06:02:15;;;;;;;;;;;9.30;54.90;;;6.83;56.44;96924.25;4029163;34;19904;-83
2022/03/24 06:04:45;;;;;;;;;;;9.40;54.40;;;6.88;56.35;96921.69;4029181;34;19912;-83
2022/03/24 06:07:15;;;;;;;;;;;9.50;54.00;;;6.90;56.07;96919.56;4027719;34;20214;-83
2022/03/24 06:09:44;;;;;;;;;;;9.50;53.80;;;6.85;55.86;96911.25;4049927;34;19911;-83
2022/03/24 06:12:15;;;;;;;;;;;9.50;53.80;;;6.71;56.50;96911.41;4028304;34;19904;-82
2022/03/24 06:14:43;;;;;;;;;;;9.30;53.90;;;6.48;56.83;96916.72;4049720;34;20231;-83
2022/03/24 06:17:12;;;;;;;;;;;8.90;54.50;;;6.16;57.66;96914.97;4049610;34;20213;-83
2022/03/24 06:19:40;;;;;;;;;;;8.40;55.40;;;5.81;58.06;96919.00;4049553;34;19911;-83
2022/03/24 06:22:12;;;;;;;;;;;8.00;56.80;;;5.47;59.31;96918.47;4048617;34;20540;-82
2022/03/24 06:24:40;;;;;;;;;;;7.40;58.30;;;5.17;60.40;96918.22;4049701;34;20234;-83
2022/03/24 06:27:09;;;;;;;;;;;7.00;59.90;;;4.91;61.33;96923.59;4049124;34;20221;-83
2022/03/24 06:29:38;;;;;;;;;;;6.60;61.60;;;4.69;62.67;96922.25;4027891;34;19904;-83
2022/03/24 06:32:08;;;;;;;;;;;6.40;63.10;;;4.50;62.94;96922.09;4051137;34;19904;-83
2022/03/24 06:34:37;;;;;;;;;;;6.10;64.30;;;4.36;63.64;96924.03;4027865;34;20200;-83
2022/03/24 06:37:06;;;;;;;;;;;5.90;65.40;;;4.23;64.58;96919.47;4032181;34;20186;-83
2022/03/24 06:39:36;;;;;;;;;;;5.70;66.30;;;4.13;64.62;96913.66;3982723;34;20210;-83
2022/03/24 06:42:05;;;;;;;;;;;5.60;67.00;;;4.06;64.71;96910.16;3981531;34;20140;-83
2022/03/24 06:44:35;;;;;;;;;;;5.50;67.60;;;4.00;65.20;96909.13;3977172;34;19928;-82
2022/03/24 06:47:05;;;;;;;;;;;5.40;68.10;;;3.95;66.09;96907.00;3976840;34;20230;-84
2022/03/24 06:49:33;;;;;;;;;;;5.30;69.40;;;3.92;65.90;96910.16;4026674;34;19912;-83
2022/03/24 06:52:02;;;;;;;;;;;5.30;68.90;;;3.90;65.73;96903.28;4056198;34;20228;-83
2022/03/24 06:54:31;;;;;;;;;;;5.20;69.20;;;3.89;65.91;96897.03;4051462;34;20159;-83
2022/03/24 06:57:00;;;;;;;;;;;5.20;69.40;;;3.88;66.55;96900.78;4050127;34;20196;-82
2022/03/24 06:59:29;;;;;;;;;;;5.20;69.70;;;3.89;66.53;96907.03;4028830;34;20211;-83
2022/03/24 07:01:58;;;;;;;;;;;5.20;69.90;;;3.89;66.70;96907.88;4050003;34;19912;-83
2022/03/24 07:04:27;;;;;;;;;;;5.20;70.00;;;3.90;66.89;96908.69;4049832;34;20331;-83
2022/03/24 07:06:56;;;;;;;;;;;5.20;70.10;;;3.90;66.48;96903.28;4027124;34;20232;-83
2022/03/24 07:09:24;;;;;;;;;;;5.20;70.20;;;3.90;66.39;96901.41;4026967;34;20223;-83
2022/03/24 07:11:54;;;;;;;;;;;5.10;70.30;;;3.92;66.49;96907.47;4026451;34;20454;-83
2022/03/24 07:14:24;;;;;;;;;;;5.20;70.40;;;3.95;66.82;96900.78;4027093;34;20195;-83
2022/03/24 07:16:53;;;;;;;;;;;5.20;70.50;;;3.95;66.28;96901.59;4048413;34;20201;-82
2022/03/24 07:19:21;;;;;;;;;;;5.20;70.50;;;3.98;66.71;96895.75;4047989;34;19911;-83
2022/03/24 07:21:50;;;;;;;;;;;5.20;71.50;;;4.01;66.89;96896.38;4025755;34;20191;-83
2022/03/24 07:24:19;;;;;;;;;;;5.20;70.50;;;4.02;66.62;96898.88;4032152;34;19915;-83
2022/03/24 07:26:47;;;;;;;;;;;5.20;70.50;;;4.03;66.52;96897.00;4021305;34;20225;-84
2022/03/24 07:29:16;;;;;;;;;;;5.20;70.50;;;4.07;66.11;96898.22;4015689;34;19962;-83
2022/03/24 07:31:46;;;;;;;;;;;5.20;70.50;;;4.08;66.50;96897.19;4000927;34;19905;-83
2022/03/24 07:34:14;;;;;;;;;;;5.20;70.60;;;4.07;66.50;96892.81;4000435;34;19905;-83
2022/03/24 07:36:43;;;;;;;;;;;5.30;70.70;;;4.09;66.82;96891.59;4022602;34;20230;-82
2022/03/24 07:39:12;;;;;;;;;;;5.30;70.70;;;4.11;66.66;96894.91;4024540;34;20227;-82
2022/03/24 07:41:41;;;;;;;;;;;5.20;70.60;;;4.12;66.27;96895.72;4002201;34;19905;-83
2022/03/24 07:44:09;;;;;;;;;;;5.30;70.70;;;4.15;66.68;96890.72;4001824;34;19912;-83
2022/03/24 07:46:38;;;;;;;;;;;5.30;70.60;;;4.16;66.13;96891.56;4001642;34;20461;-83
2022/03/24 07:49:09;;;;;;;;;;;5.30;71.40;;;4.19;65.97;96884.88;4023595;34;19904;-83
2022/03/24 07:51:39;;;;;;;;;;;5.30;70.50;;;4.20;66.39;96879.22;4001885;34;20688;-83
2022/03/24 07:54:09;;;;;;;;;;;5.30;70.50;;;4.21;65.93;96880.91;4025679;34;20624;-83
2022/03/24 07:56:38;;;;;;;;;;;5.30;70.40;;;4.23;65.88;96881.53;4004052;34;20225;-83
2022/03/24 07:59:07;;;;;;;;;;;5.40;70.40;;;4.25;66.30;96863.19;4007660;34;20236;-83
2022/03/24 08:01:36;;;;;;;;;;;5.30;70.30;;;4.27;65.91;96871.09;4007444;34;19927;-82
2022/03/24 08:04:06;;;;;;;;;;;5.40;70.20;;;4.28;65.86;96860.03;4011401;34;19912;-82
2022/03/24 08:06:36;;;;;;;;;;;5.40;70.20;;;4.30;65.97;96860.66;4032525;34;20090;-83
2022/03/24 08:09:04;;;;;;;;;;;5.40;70.20;;;4.32;66.28;96867.75;4033217;34;20197;-83
2022/03/24 08:11:33;;;;;;;;;;;5.40;70.20;;;4.33;66.18;96853.13;4027569;34;20392;-83
2022/03/24 08:14:02;;;;;;;;;;;5.40;70.10;;;4.33;66.17;96858.56;4033010;34;20247;-83
2022/03/24 08:16:30;;;;;;;;;;;5.40;70.10;;;4.33;66.05;96858.56;4010247;34;19916;-82
2022/03/24 08:18:59;;;;;;;;;;;5.40;70.10;;;4.32;65.71;96851.50;4034045;34;20251;-83
2022/03/24 08:21:27;;;;;;;;;;;5.40;70.10;;;4.30;65.98;96844.41;4037220;34;20200;-83
2022/03/24 08:23:57;;;;;;;;;;;5.40;70.20;;;4.29;66.14;96848.16;4031213;34;19911;-83
2022/03/24 08:26:26;;;;;;;;;;;5.40;70.20;;;4.28;66.15;96841.06;4057194;34;20659;-83
2022/03/24 08:28:57;;;;;;;;;;;5.40;70.20;;;4.27;66.32;96833.97;4034410;34;20215;-83
2022/03/24 08:31:25;;;;;;;;;;;5.40;70.20;;;4.25;66.40;96833.38;4035835;34;20199;-83
2022/03/24 08:33:54;;;;;;;;;;;5.40;70.30;;;4.22;66.26;96831.06;4036188;34;19904;-84
2022/03/24 08:36:22;;;;;;;;;;;5.40;70.20;;;4.22;66.37;96832.97;4035322;34;19904;-83
2022/03/24 08:38:51;;;;;;;;;;;5.40;70.30;;;4.21;66.40;96829.41;4056713;34;20235;-83
2022/03/24 08:41:21;;;;;;;;;;;5.40;70.40;;;4.20;66.07;96826.94;4051656;34;19908;-84
2022/03/24 08:43:50;;;;;;;;;;;5.40;70.30;;;4.18;66.61;96829.84;4030151;34;19908;-83
2022/03/24 08:46:24;;;;;;;;;;;5.40;70.40;;;4.15;66.34;96822.16;4029710;34;19912;-84
2022/03/24 08:48:56;;;;;;;;;;;5.30;70.50;;;4.14;66.25;96820.50;4030208;34;20248;-83
2022/03/24 08:51:27;;;;;;;;;;;5.30;70.50;;;4.12;66.60;96819.88;4027491;34;19904;-84
2022/03/24 08:53:55;;;;;;;;;;;5.30;70.60;;;4.11;66.78;96823.63;4000830;34;20209;-84
2022/03/24 08:56:26;;;;;;;;;;;5.30;71.50;;;4.10;66.45;96821.94;4022076;34;20207;-84
2022/03/24 08:58:55;;;;;;;;;;;5.30;70.70;;;4.10;66.99;96816.53;4003227;34;20217;-84
2022/03/24 09:01:23;;;;;;;;;;;5.30;70.80;;;4.06;66.61;96809.91;4021722;34;20219;-84
2022/03/24 09:03:52;;;;;;;;;;;5.30;70.70;;;4.05;67.34;96819.88;4020707;34;20209;-84
2022/03/24 09:06:21;;;;;;;;;;;5.30;70.80;;;4.04;66.82;96812.81;4020836;34;20253;-84
2022/03/24 09:08:51;;;;;;;;;;;5.30;70.80;;;4.03;67.35;96810.31;4043518;34;20213;-84
2022/03/24 09:11:19;;;;;;;;;;;5.30;70.90;;;4.02;67.02;96804.06;4022503;34;20233;-83
2022/03/24 09:13:50;;;;;;;;;;;5.30;70.90;;;4.02;66.94;96800.53;4001258;34;19908;-83
2022/03/24 09:16:19;;;;;;;;;;;5.20;70.80;;;3.99;66.99;96799.91;4044065;34;19904;-83
2022/03/24 09:18:48;;;;;;;;;;;5.20;70.90;;;3.98;67.50;96797.41;4023104;34;20210;-84
2022/03/24 09:21:16;;;;;;;;;;;5.20;71.00;;;3.97;67.37;96801.16;4023232;34;20204;-84
2022/03/24 09:23:46;;;;;;;;;;;5.20;71.00;;;3.96;67.65;96794.09;4025891;34;20233;-84
2022/03/24 09:26:15;;;;;;;;;;;5.20;71.10;;;3.95;67.41;96793.25;4024598;34;20200;-84
2022/03/24 09:28:43;;;;;;;;;;;5.20;71.20;;;3.95;67.51;96792.41;4011178;34;19904;-83
2022/03/24 09:31:13;;;;;;;;;;;5.20;71.20;;;3.93;67.81;96791.78;4019973;34;20568;-83
2022/03/24 09:33:42;;;;;;;;;;;5.20;71.20;;;3.91;67.90;96789.31;4004523;34;19983;-84
2022/03/24 09:36:11;;;;;;;;;;;5.20;71.20;;;3.90;67.71;96773.25;4001940;34;20231;-85
2022/03/24 09:38:39;;;;;;;;;;;5.20;71.30;;;3.90;67.96;96784.09;4024254;34;20228;-84
2022/03/24 09:41:10;;;;;;;;;;;5.10;71.40;;;3.86;67.84;96778.28;4023809;34;23772;-84
2022/03/24 09:43:38;;;;;;;;;;;5.10;71.50;;;3.87;67.75;96773.72;4024785;34;20234;-84
2022/03/24 09:46:07;;;;;;;;;;;5.10;71.60;;;3.85;67.98;96773.91;4005915;34;19905;-84
2022/03/24 09:48:37;;;;;;;;;;;5.10;71.60;;;3.83;67.82;96767.88;4030595;34;20239;-84
2022/03/24 09:51:05;;;;;;;;;;;5.10;71.60;;;3.82;68.32;96760.78;4030965;34;20214;-84
2022/03/24 09:53:39;;;;;;;;;;;5.10;71.70;;;3.81;67.86;96770.78;4025927;34;20247;-84
2022/03/24 09:56:08;;;;;;;;;;;5.10;71.80;;;3.80;68.06;96752.88;4025820;34;20209;-85
2022/03/24 09:58:37;;;;;;;;;;;5.10;71.80;;;3.79;68.19;96753.09;4004778;34;19905;-84
2022/03/24 10:01:06;;;;;;;;;;;5.10;71.90;;;3.79;68.11;96750.41;4021289;34;20201;-85
2022/03/24 10:03:36;;;;;;;;;;;5.10;71.90;;;3.76;68.00;96745.41;3973582;34;20229;-84
2022/03/24 10:06:07;;;;;;;;;;;5.10;72.00;;;3.75;68.48;96741.84;4029978;34;20223;-85
2022/03/24 10:08:36;;;;;;;;;;;5.10;72.00;;;3.74;68.24;96736.66;4047367;34;20227;-84
2022/03/24 10:11:06;;;;;;;;;;;5.00;72.00;;;3.72;68.62;96733.31;4041503;34;19904;-84
2022/03/24 10:13:45;;;;;;;;;;;5.00;72.00;;;3.73;68.24;96726.88;4029444;34;19904;-85
2022/03/24 10:16:17;;;;;;;;;;;5.00;72.10;;;3.73;68.48;96724.16;4051444;34;19920;-85
2022/03/24 10:19:01;;;;;;;;;;;5.00;72.20;;;3.72;68.34;96722.50;4029610;34;20211;-84
2022/03/24 10:21:30;;;;;;;;;;;5.00;72.30;;;3.69;68.55;96713.75;4021942;34;19912;-85
2022/03/24 10:24:00;;;;;;;;;;;5.00;72.30;;;3.71;69.00;96720.81;4006766;34;20535;-85
2022/03/24 10:26:44;;;;;;;;;;;5.00;72.30;;;3.69;68.66;96719.16;4038018;34;19904;-85
2022/03/24 10:29:15;;;;;;;;;;;5.00;72.40;;;3.68;68.53;96706.66;4058688;34;20211;-84
2022/03/24 10:31:44;;;;;;;;;;;5.00;72.40;;;3.66;68.56;96699.81;4058991;34;20204;-84
2022/03/24 10:34:14;;;;;;;;;;;5.00;72.50;;;3.66;68.78;96705.22;4038033;34;20218;-85
2022/03/24 10:36:43;;;;;;;;;;;5.00;72.60;;;3.64;69.06;96707.31;4038127;34;19904;-84
2022/03/24 10:39:11;;;;;;;;;;;4.90;72.60;;;3.64;68.73;96694.63;4039042;34;20232;-84
2022/03/24 10:41:40;;;;;;;;;;;4.90;72.60;;;3.63;68.95;96689.41;4038506;34;20200;-84
2022/03/24 10:44:11;;;;;;;;;;;4.90;72.70;;;3.62;69.03;96688.59;4063366;34;20234;-84
2022/03/24 10:46:41;;;;;;;;;;;4.90;72.70;;;3.61;68.92;96681.50;4039939;34;20186;-85
2022/03/24 10:49:20;;;;;;;;;;;4.90;72.80;;;3.61;68.70;96688.81;4038371;34;20495;-85
2022/03/24 10:51:51;;;;;;;;;;;4.90;72.80;;;3.60;69.12;96687.97;4061950;34;19904;-85
2022/03/24 10:54:28;;;;;;;;;;;4.90;72.90;;;3.60;68.75;96676.31;4060870;34;20235;-85
2022/03/24 10:57:04;;;;;;;;;;;4.90;72.90;;;3.59;69.38;96675.47;4059679;34;20225;-85
2022/03/24 10:59:36;;;;;;;;;;;4.90;73.00;;;3.59;69.15;96669.25;4059980;34;20585;-84
2022/03/24 11:02:05;;;;;;;;;;;4.90;73.10;;;3.57;69.73;96663.22;4060615;34;20536;-84
2022/03/24 11:04:35;;;;;;;;;;;4.90;73.00;;;3.54;69.26;96661.78;4060606;34;20213;-84
2022/03/24 11:07:04;;;;;;;;;;;4.90;73.10;;;3.54;69.24;96656.34;4060573;34;20203;-84
2022/03/24 11:09:33;;;;;;;;;;;4.80;73.00;;;3.53;69.42;96654.69;4035620;34;19915;-84
2022/03/24 11:12:27;;;;;;;;;;;4.90;73.20;;;3.55;69.28;96638.22;4054816;34;20254;-84
2022/03/24 11:14:57;;;;;;;;;;;4.90;73.20;;;3.54;69.52;96645.53;4031718;34;19999;-84
2022/03/24 11:17:27;;;;;;;;;;;4.80;73.20;;;3.53;69.18;96644.69;4009965;34;20218;-84
2022/03/24 11:20:07;;;;;;;;;;;4.80;73.20;;;3.54;69.36;96642.81;4011199;34;19905;-84
2022/03/24 11:22:41;;;;;;;;;;;4.80;73.30;;;3.53;69.66;96633.03;4032218;34;20211;-85
2022/03/24 11:25:10;;;;;;;;;;;4.80;73.30;;;3.52;69.62;96632.19;4032950;34;20215;-84
2022/03/24 11:27:39;;;;;;;;;;;4.80;73.30;;;3.52;69.66;96628.66;4010120;34;19905;-85
2022/03/24 11:30:09;;;;;;;;;;;4.80;73.30;;;3.51;69.35;96624.28;4036238;34;19905;-84
2022/03/24 11:32:41;;;;;;;;;;;4.80;73.40;;;3.52;69.94;96615.13;4030865;34;20207;-84
2022/03/24 11:35:11;;;;;;;;;;;4.80;73.40;;;3.50;70.28;96622.63;4036160;34;20219;-85
2022/03/24 11:37:40;;;;;;;;;;;4.80;73.30;;;3.49;69.58;96599.31;4013119;34;19911;-84
2022/03/24 11:40:11;;;;;;;;;;;4.80;73.40;;;3.49;69.61;96604.72;4036272;34;19912;-85
2022/03/24 11:42:45;;;;;;;;;;;4.80;73.40;;;3.48;69.94;96600.34;4035759;34;19911;-84
2022/03/24 11:45:21;;;;;;;;;;;4.80;73.50;;;3.48;69.43;96603.06;4036072;34;20112;-84